Time;durP1;ratioP1;P1;durP2;ratioP2;P2;SDS_P1;SDS_P2;PMS_P1;PMS_P2;Temp;Humidity;BMP_temperature;BMP_pressure;BME280_temperature;BME280_humidity;BME280_pressure;Samples;Min_cycle;Max_cycle;Signal;HPM_P1;HPM_P2
2023/09/05 00:00:22;;;;;;;4.65;3.33;;;19.30;90.40;;;;;;6249848;28;20500;-80
2023/09/05 00:03:24;;;;;;;3.85;3.35;;;19.30;90.60;;;;;;6249879;28;20186;-80
2023/09/05 00:06:26;;;;;;;5.10;3.58;;;19.20;90.70;;;;;;6248772;28;20053;-80
2023/09/05 00:09:29;;;;;;;6.78;4.05;;;19.20;90.90;;;;;;6248394;28;20049;-81
2023/09/05 00:12:31;;;;;;;5.45;4.00;;;19.00;91.00;;;;;;6249257;28;20082;-81
2023/09/05 00:15:33;;;;;;;3.78;3.38;;;19.10;91.20;;;;;;6250113;28;20049;-81
2023/09/05 00:18:34;;;;;;;4.63;4.05;;;19.00;91.30;;;;;;6249634;28;20049;-81
2023/09/05 00:21:36;;;;;;;4.82;3.83;;;19.00;91.50;;;;;;6248644;28;20053;-79
2023/09/05 00:24:39;;;;;;;3.83;3.10;;;18.90;91.70;;;;;;6248408;28;20511;-80
2023/09/05 00:27:41;;;;;;;4.30;3.63;;;18.80;91.90;;;;;;6248399;28;20057;-81
2023/09/05 00:30:42;;;;;;;4.22;3.83;;;18.70;92.00;;;;;;6248838;28;20049;-81
2023/09/05 00:33:45;;;;;;;4.78;4.25;;;18.70;92.20;;;;;;6248713;28;20068;-80
2023/09/05 00:36:48;;;;;;;6.40;4.57;;;18.70;92.30;;;;;;6248085;28;20041;-80
2023/09/05 00:39:51;;;;;;;5.50;3.72;;;18.60;92.40;;;;;;6248438;28;20045;-80
2023/09/05 00:42:53;;;;;;;3.67;3.38;;;18.60;92.50;;;;;;6248716;28;20057;-80
2023/09/05 00:45:56;;;;;;;4.15;3.65;;;18.60;92.70;;;;;;6248424;28;20049;-82
2023/09/05 00:49:02;;;;;;;4.43;3.40;;;18.60;92.80;;;;;;6247687;28;20053;-81
2023/09/05 00:52:05;;;;;;;4.68;3.63;;;18.50;92.80;;;;;;6248649;28;20179;-80
2023/09/05 00:55:09;;;;;;;4.97;3.58;;;18.60;92.90;;;;;;6248634;28;20507;-80
2023/09/05 00:58:11;;;;;;;3.83;3.05;;;18.60;93.00;;;;;;6251025;28;20053;-79
2023/09/05 01:01:13;;;;;;;4.25;3.67;;;18.60;93.00;;;;;;6252496;28;20045;-81
2023/09/05 01:04:15;;;;;;;3.80;3.50;;;18.50;93.00;;;;;;6253363;28;20041;-80
2023/09/05 01:07:26;;;;;;;4.43;3.38;;;18.60;93.10;;;;;;6253425;28;20046;-80
2023/09/05 01:10:38;;;;;;;4.57;3.40;;;18.60;93.10;;;;;;6252724;28;20439;-79
2023/09/05 01:13:41;;;;;;;5.32;3.65;;;18.60;93.10;;;;;;6252741;28;20051;-80
2023/09/05 01:16:45;;;;;;;4.47;4.07;;;18.60;93.10;;;;;;6252924;28;20065;-81
2023/09/05 01:19:48;;;;;;;2.80;2.53;;;18.60;93.10;;;;;;6252607;28;20188;-80
2023/09/05 01:22:59;;;;;;;5.45;4.68;;;18.60;93.20;;;;;;6253007;28;20053;-80
2023/09/05 01:26:02;;;;;;;7.60;3.95;;;18.60;93.20;;;;;;6252388;28;20056;-81
2023/09/05 01:29:05;;;;;;;4.78;3.70;;;18.60;93.30;;;;;;6251749;28;20590;-82
2023/09/05 01:32:09;;;;;;;4.15;3.35;;;18.60;93.30;;;;;;6252358;28;20051;-82
2023/09/05 01:35:11;;;;;;;5.60;3.63;;;18.60;93.40;;;;;;6252567;28;20056;-80
2023/09/05 01:38:13;;;;;;;4.95;2.97;;;18.60;93.30;;;;;;6251316;28;20046;-81
2023/09/05 01:41:16;;;;;;;4.80;3.38;;;18.60;93.30;;;;;;6251514;28;20136;-79
2023/09/05 01:44:18;;;;;;;4.00;3.28;;;18.60;93.30;;;;;;6242994;28;20049;-79
2023/09/05 01:47:20;;;;;;;3.97;3.58;;;18.60;93.30;;;;;;6252598;28;20046;-79
2023/09/05 01:50:23;;;;;;;3.70;3.25;;;18.60;93.20;;;;;;6252322;28;20633;-80
2023/09/05 01:53:24;;;;;;;3.28;3.05;;;18.60;93.20;;;;;;6251784;28;20099;-78
2023/09/05 01:56:27;;;;;;;4.20;3.75;;;18.50;93.10;;;;;;6252602;28;20037;-78
2023/09/05 01:59:29;;;;;;;3.22;2.70;;;18.50;93.10;;;;;;6250604;28;20050;-80
2023/09/05 02:02:31;;;;;;;5.50;3.00;;;18.40;93.10;;;;;;6251521;28;20045;-80
2023/09/05 02:05:33;;;;;;;3.75;2.65;;;18.50;93.10;;;;;;6250888;28;20053;-78
2023/09/05 02:08:35;;;;;;;6.10;2.85;;;18.40;93.10;;;;;;6250835;28;20041;-79
2023/09/05 02:11:38;;;;;;;7.38;3.38;;;18.40;93.00;;;;;;6251779;28;20042;-78
2023/09/05 02:14:45;;;;;;;4.40;3.38;;;18.30;93.00;;;;;;6251774;28;20045;-80
2023/09/05 02:17:47;;;;;;;4.32;3.42;;;18.30;93.00;;;;;;6251328;28;20053;-78
2023/09/05 02:20:49;;;;;;;3.17;2.63;;;18.30;92.90;;;;;;6250864;28;20049;-79
2023/09/05 02:23:50;;;;;;;4.30;2.78;;;18.20;92.90;;;;;;6250571;28;20060;-78
2023/09/05 02:26:54;;;;;;;6.72;3.08;;;18.20;92.90;;;;;;6251130;28;20060;-79
2023/09/05 02:30:01;;;;;;;3.22;2.58;;;18.20;92.90;;;;;;6250822;28;20041;-78
2023/09/05 02:33:02;;;;;;;6.03;2.92;;;18.10;92.90;;;;;;6250252;28;20352;-79
2023/09/05 02:36:09;;;;;;;3.25;2.95;;;18.10;92.90;;;;;;6251126;28;20045;-78
2023/09/05 02:39:11;;;;;;;3.97;3.20;;;18.00;92.90;;;;;;6250686;28;20342;-79
2023/09/05 02:42:14;;;;;;;4.10;3.33;;;17.90;92.90;;;;;;6250674;28;20045;-78
2023/09/05 02:45:15;;;;;;;4.70;2.95;;;17.90;93.00;;;;;;6250486;28;20049;-80
2023/09/05 02:48:17;;;;;;;6.32;3.13;;;17.90;93.00;;;;;;6250919;28;20046;-80
2023/09/05 02:51:19;;;;;;;3.50;2.85;;;17.80;93.00;;;;;;6250257;28;20041;-79
2023/09/05 02:54:20;;;;;;;3.22;2.65;;;17.70;93.10;;;;;;6250425;28;20045;-80
2023/09/05 02:57:24;;;;;;;4.47;3.50;;;17.70;93.20;;;;;;6250435;28;20075;-78
2023/09/05 03:00:26;;;;;;;8.02;4.13;;;17.60;93.30;;;;;;6250682;28;20520;-80
2023/09/05 03:03:27;;;;;;;3.58;2.95;;;17.60;93.30;;;;;;6250854;28;20054;-78
2023/09/05 03:06:29;;;;;;;3.33;3.03;;;17.60;93.30;;;;;;6250148;28;20497;-80
2023/09/05 03:09:31;;;;;;;3.80;3.28;;;17.60;93.40;;;;;;6249345;28;20045;-80
2023/09/05 03:12:34;;;;;;;3.40;2.40;;;17.50;93.30;;;;;;6250743;28;20045;-78
2023/09/05 03:15:35;;;;;;;3.42;2.80;;;17.50;93.40;;;;;;6250783;28;20511;-78
2023/09/05 03:18:37;;;;;;;5.55;3.15;;;17.50;93.60;;;;;;6249764;28;20052;-78
2023/09/05 03:21:39;;;;;;;3.72;2.60;;;17.40;93.40;;;;;;6249997;28;20050;-78
2023/09/05 03:24:40;;;;;;;7.60;2.85;;;17.40;93.40;;;;;;6251083;28;20044;-80
2023/09/05 03:27:43;;;;;;;4.13;2.70;;;17.40;93.40;;;;;;6249850;28;20060;-80
2023/09/05 03:30:45;;;;;;;3.38;3.08;;;17.30;93.30;;;;;;6250545;28;20050;-80
2023/09/05 03:33:47;;;;;;;3.55;2.65;;;17.30;93.30;;;;;;6250190;28;20406;-78
2023/09/05 03:36:49;;;;;;;3.35;3.05;;;17.30;93.20;;;;;;6250003;28;20129;-80
2023/09/05 03:39:51;;;;;;;2.88;2.67;;;17.30;93.20;;;;;;6249848;28;20584;-79
2023/09/05 03:42:54;;;;;;;3.20;2.90;;;17.30;93.20;;;;;;6251500;28;20061;-80
2023/09/05 03:45:55;;;;;;;3.85;3.22;;;17.20;93.20;;;;;;6249352;28;20046;-79
2023/09/05 03:48:57;;;;;;;3.38;2.85;;;17.20;93.20;;;;;;6249686;28;20043;-77
2023/09/05 03:51:59;;;;;;;4.30;2.42;;;17.20;93.20;;;;;;6249286;28;20048;-79
2023/09/05 03:55:01;;;;;;;3.00;2.78;;;17.20;93.20;;;;;;6246717;28;20045;-79
2023/09/05 03:58:05;;;;;;;5.68;2.25;;;17.20;93.10;;;;;;6249672;28;20041;-79
2023/09/05 04:01:13;;;;;;;5.40;2.80;;;17.20;93.10;;;;;;6249731;28;20045;-80
2023/09/05 04:04:15;;;;;;;4.18;3.25;;;17.20;93.10;;;;;;6249044;28;20045;-80
2023/09/05 04:07:22;;;;;;;5.13;2.30;;;17.20;93.00;;;;;;6250627;28;20053;-79
2023/09/05 04:10:23;;;;;;;2.78;2.20;;;17.20;93.00;;;;;;6249054;28;20107;-78
2023/09/05 04:13:26;;;;;;;3.65;2.58;;;17.30;93.00;;;;;;6248941;28;20532;-78
2023/09/05 04:16:28;;;;;;;4.30;3.17;;;17.30;92.90;;;;;;6260165;28;20045;-78
2023/09/05 04:19:30;;;;;;;4.28;3.08;;;17.30;92.90;;;;;;6268304;28;20071;-78
2023/09/05 04:22:31;;;;;;;3.67;2.80;;;17.20;92.90;;;;;;6266341;28;20044;-78
2023/09/05 04:25:40;;;;;;;3.15;2.55;;;17.20;92.90;;;;;;6268306;28;20071;-79
2023/09/05 04:28:43;;;;;;;3.72;2.45;;;17.20;92.90;;;;;;6263891;28;20041;-80
2023/09/05 04:31:44;;;;;;;3.05;2.42;;;17.20;92.90;;;;;;6260586;28;20046;-78
2023/09/05 04:34:46;;;;;;;3.97;3.47;;;17.20;92.90;;;;;;6260833;28;20060;-79
2023/09/05 04:37:47;;;;;;;4.53;3.08;;;17.20;92.90;;;;;;6258946;28;20052;-79
2023/09/05 04:40:49;;;;;;;2.60;2.30;;;17.20;92.90;;;;;;6257397;28;20042;-81
2023/09/05 04:43:52;;;;;;;3.83;2.45;;;17.20;92.90;;;;;;6257524;28;20045;-80
2023/09/05 04:47:18;;;;;;;2.58;1.90;;;17.20;92.90;;;;;;6257866;28;20049;-81
2023/09/05 04:50:20;;;;;;;3.03;2.75;;;17.10;92.90;;;;;;6255761;28;20046;-81
2023/09/05 04:53:22;;;;;;;3.13;2.33;;;17.10;92.80;;;;;;6256726;28;20041;-81
2023/09/05 04:56:23;;;;;;;3.92;2.47;;;17.10;92.90;;;;;;6255227;28;20049;-80
2023/09/05 04:59:26;;;;;;;3.05;1.98;;;17.20;92.90;;;;;;6255158;28;20065;-79
2023/09/05 05:02:31;;;;;;;2.38;2.08;;;17.20;92.80;;;;;;6255195;28;20115;-79
2023/09/05 05:05:33;;;;;;;4.28;2.33;;;17.20;92.80;;;;;;6255238;28;20049;-78
2023/09/05 05:08:35;;;;;;;3.97;2.25;;;17.20;92.70;;;;;;6256400;28;20038;-78
2023/09/05 05:11:36;;;;;;;4.40;2.13;;;17.30;92.70;;;;;;6256433;28;20053;-79
2023/09/05 05:14:39;;;;;;;3.33;2.05;;;17.30;92.60;;;;;;6255482;28;20056;-79
2023/09/05 05:17:41;;;;;;;2.95;2.63;;;17.40;92.60;;;;;;6254546;28;20045;-79
2023/09/05 05:20:42;;;;;;;3.13;2.33;;;17.40;92.60;;;;;;6255754;28;20501;-79
2023/09/05 05:23:44;;;;;;;2.70;1.80;;;17.50;92.60;;;;;;6255728;28;20049;-79
2023/09/05 05:26:46;;;;;;;7.28;3.25;;;17.60;92.60;;;;;;6255475;28;20046;-79
2023/09/05 05:29:49;;;;;;;2.40;2.15;;;17.60;92.50;;;;;;6254464;28;20053;-81
2023/09/05 05:32:51;;;;;;;3.30;2.25;;;17.80;92.50;;;;;;6254353;28;20539;-79
2023/09/05 05:35:54;;;;;;;2.90;2.53;;;17.90;92.40;;;;;;6255098;28;20053;-81
2023/09/05 05:38:56;;;;;;;4.15;2.70;;;18.00;92.20;;;;;;6255126;28;20053;-80
2023/09/05 05:41:58;;;;;;;4.78;2.35;;;18.10;92.20;;;;;;6256197;28;20168;-81
2023/09/05 05:45:01;;;;;;;3.55;2.15;;;18.30;92.10;;;;;;6259835;28;20046;-81
2023/09/05 05:48:03;;;;;;;3.85;2.70;;;18.50;92.00;;;;;;6243587;28;20053;-81
2023/09/05 05:51:05;;;;;;;2.28;1.98;;;18.60;91.80;;;;;;6253865;28;20049;-78
2023/09/05 05:54:08;;;;;;;4.60;2.55;;;18.70;91.70;;;;;;6255499;28;20065;-79
2023/09/05 05:57:09;;;;;;;3.85;2.40;;;18.90;91.60;;;;;;6254329;28;20100;-81
2023/09/05 06:00:13;;;;;;;3.05;2.03;;;19.10;91.50;;;;;;6251797;28;20041;-79
2023/09/05 06:03:16;;;;;;;5.82;2.75;;;19.30;91.60;;;;;;6250556;28;20048;-80
2023/09/05 06:06:18;;;;;;;4.15;2.13;;;19.60;91.20;;;;;;6246331;28;20045;-80
2023/09/05 06:09:20;;;;;;;4.78;3.28;;;19.80;91.10;;;;;;6244638;28;20045;-80
2023/09/05 06:12:22;;;;;;;4.53;2.40;;;20.00;90.90;;;;;;6255521;28;20042;-80
2023/09/05 06:15:25;;;;;;;6.63;3.38;;;20.30;90.70;;;;;;6255607;28;20056;-81
2023/09/05 06:18:27;;;;;;;3.13;1.98;;;20.40;90.30;;;;;;6254289;28;20183;-82
2023/09/05 06:21:28;;;;;;;4.78;2.33;;;20.60;90.30;;;;;;6265216;28;20481;-76
2023/09/05 06:24:30;;;;;;;3.30;2.20;;;21.00;90.20;;;;;;6251570;28;20513;-78
2023/09/05 06:27:32;;;;;;;3.53;2.25;;;21.70;89.70;;;;;;6252297;28;20061;-79
2023/09/05 06:30:35;;;;;;;3.97;1.90;;;22.80;86.90;;;;;;6251495;28;20054;-78
2023/09/05 06:33:36;;;;;;;2.72;2.15;;;23.60;83.10;;;;;;6251094;28;20056;-78
2023/09/05 06:36:38;;;;;;;3.70;2.08;;;23.70;80.10;;;;;;6250170;28;20045;-78
2023/09/05 06:39:39;;;;;;;3.25;1.52;;;23.30;78.80;;;;;;6249994;28;20065;-78
2023/09/05 06:42:41;;;;;;;2.65;1.95;;;22.90;78.60;;;;;;6252408;28;20046;-79
2023/09/05 06:45:44;;;;;;;2.20;2.00;;;22.50;79.00;;;;;;6250530;28;20049;-78
2023/09/05 06:48:46;;;;;;;2.97;1.55;;;22.20;79.00;;;;;;6249846;28;20385;-77
2023/09/05 06:51:48;;;;;;;4.50;1.70;;;21.90;79.50;;;;;;6249985;28;20661;-77
2023/09/05 06:54:50;;;;;;;3.13;1.90;;;21.80;79.90;;;;;;6249203;28;20049;-78
2023/09/05 06:57:51;;;;;;;3.38;1.70;;;21.80;79.70;;;;;;6249195;28;20059;-80
2023/09/05 07:00:55;;;;;;;3.63;2.30;;;21.90;79.90;;;;;;6249832;28;20053;-78
2023/09/05 07:03:57;;;;;;;2.75;2.17;;;22.00;79.90;;;;;;6250485;28;20083;-79
2023/09/05 07:06:58;;;;;;;3.03;2.33;;;22.10;79.70;;;;;;6250079;28;20045;-79
2023/09/05 07:10:00;;;;;;;3.00;1.98;;;22.20;79.50;;;;;;6248156;28;20052;-79
2023/09/05 07:13:02;;;;;;;2.20;1.80;;;22.40;79.30;;;;;;6249723;28;20053;-79
2023/09/05 07:16:06;;;;;;;3.42;1.65;;;22.60;78.80;;;;;;6249135;28;20191;-79
2023/09/05 07:19:07;;;;;;;2.75;2.03;;;22.90;78.60;;;;;;6249309;28;20129;-78
2023/09/05 07:22:09;;;;;;;1.83;1.58;;;23.10;78.10;;;;;;6246643;28;20050;-79
2023/09/05 07:25:11;;;;;;;2.45;1.42;;;23.40;77.50;;;;;;6249602;28;20053;-79
2023/09/05 07:28:12;;;;;;;1.48;1.15;;;23.60;76.90;;;;;;6249163;28;20526;-77
2023/09/05 07:31:17;;;;;;;2.33;1.63;;;23.70;76.40;;;;;;6250241;28;20424;-78
2023/09/05 07:34:19;;;;;;;3.47;1.58;;;24.00;76.20;;;;;;6245577;28;20053;-80
2023/09/05 07:37:21;;;;;;;2.45;1.60;;;24.30;75.50;;;;;;6241816;28;20527;-77
2023/09/05 07:40:23;;;;;;;9.75;1.50;;;24.50;75.20;;;;;;6225226;28;20046;-79
2023/09/05 07:43:24;;;;;;;2.22;1.63;;;24.70;74.80;;;;;;6226326;28;20541;-79
2023/09/05 07:46:28;;;;;;;2.15;1.88;;;24.90;74.40;;;;;;6225447;28;20065;-79
2023/09/05 07:49:31;;;;;;;2.22;1.98;;;25.10;73.30;;;;;;6234224;28;20111;-78
2023/09/05 07:52:33;;;;;;;4.10;1.77;;;25.20;72.70;;;;;;6239748;28;20053;-79
2023/09/05 07:55:35;;;;;;;3.20;1.70;;;25.50;72.50;;;;;;6248758;28;20060;-79
2023/09/05 07:58:37;;;;;;;3.40;1.65;;;26.00;71.80;;;;;;6247603;28;20053;-79
2023/09/05 08:01:40;;;;;;;3.17;1.48;;;26.30;70.70;;;;;;6248305;28;20045;-78
2023/09/05 08:04:41;;;;;;;1.60;1.25;;;26.60;69.80;;;;;;6247630;28;20057;-79
2023/09/05 08:07:43;;;;;;;2.50;1.67;;;27.10;68.90;;;;;;6247465;28;20149;-78
2023/09/05 08:10:45;;;;;;;4.30;2.13;;;27.70;67.80;;;;;;6248991;28;20052;-80
2023/09/05 08:13:46;;;;;;;2.83;1.80;;;28.10;66.50;;;;;;6248805;28;20045;-79
2023/09/05 08:16:49;;;;;;;2.50;1.30;;;28.50;65.10;;;;;;6250687;28;20045;-79
2023/09/05 08:19:51;;;;;;;4.55;1.48;;;28.80;63.50;;;;;;6249065;28;20547;-79
2023/09/05 08:22:53;;;;;;;2.67;1.67;;;28.80;63.10;;;;;;6251821;28;20057;-81
2023/09/05 08:25:56;;;;;;;2.67;1.45;;;28.70;63.30;;;;;;6251875;28;20136;-79
2023/09/05 08:28:58;;;;;;;2.85;1.83;;;28.40;62.80;;;;;;6250089;28;20045;-80
2023/09/05 08:32:01;;;;;;;2.03;1.63;;;28.30;63.10;;;;;;6250845;28;20059;-80
2023/09/05 08:35:02;;;;;;;1.73;1.63;;;28.10;63.50;;;;;;6249783;28;20060;-79
2023/09/05 08:38:05;;;;;;;2.58;1.70;;;28.10;63.80;;;;;;6246303;28;20041;-81
2023/09/05 08:41:07;;;;;;;2.53;1.75;;;28.20;63.70;;;;;;6250603;28;20045;-80
2023/09/05 08:44:09;;;;;;;3.92;1.70;;;28.30;63.40;;;;;;6237074;28;20830;-80
2023/09/05 08:47:13;;;;;;;2.58;1.50;;;28.40;63.60;;;;;;6247953;28;20045;-80
2023/09/05 08:50:14;;;;;;;2.13;1.33;;;28.50;63.40;;;;;;6249209;28;20049;-80
2023/09/05 08:53:18;;;;;;;3.92;1.77;;;28.60;62.80;;;;;;6249068;28;20401;-81
2023/09/05 08:56:21;;;;;;;1.95;1.73;;;28.70;62.50;;;;;;6251462;28;20377;-80
2023/09/05 08:59:25;;;;;;;4.78;1.52;;;28.70;62.70;;;;;;6244733;28;20065;-77
2023/09/05 09:02:29;;;;;;;3.65;2.05;;;29.00;62.20;;;;;;6247656;28;20038;-80
2023/09/05 09:05:30;;;;;;;2.60;1.38;;;28.90;62.20;;;;;;6244131;28;20057;-81
2023/09/05 09:08:39;;;;;;;2.13;1.42;;;29.10;61.90;;;;;;6246210;28;20046;-81
2023/09/05 09:11:41;;;;;;;3.42;1.83;;;29.20;60.70;;;;;;6251942;28;20045;-81
2023/09/05 09:14:43;;;;;;;1.88;1.13;;;29.20;60.60;;;;;;6253345;28;20535;-80
2023/09/05 09:17:48;;;;;;;2.22;1.33;;;29.20;60.50;;;;;;6252531;28;20077;-79
2023/09/05 09:20:50;;;;;;;1.98;1.48;;;29.10;60.10;;;;;;6251099;28;20053;-82
2023/09/05 09:23:52;;;;;;;6.60;1.30;;;29.10;59.60;;;;;;6253852;28;20420;-82
2023/09/05 09:26:55;;;;;;;2.60;1.20;;;29.00;59.70;;;;;;6256665;28;20049;-81
2023/09/05 09:29:57;;;;;;;1.30;1.20;;;28.80;59.50;;;;;;6254791;28;20120;-81
2023/09/05 09:33:00;;;;;;;2.08;1.48;;;28.90;59.70;;;;;;6254546;28;20053;-82
2023/09/05 09:36:07;;;;;;;1.70;1.00;;;28.80;59.40;;;;;;6257559;28;20053;-81
2023/09/05 09:39:09;;;;;;;1.70;1.20;;;28.70;59.30;;;;;;6243779;28;20130;-78
2023/09/05 09:42:15;;;;;;;1.70;1.15;;;28.70;59.20;;;;;;6256642;28;20041;-81
2023/09/05 09:45:17;;;;;;;1.65;1.38;;;28.90;59.10;;;;;;6252937;28;20045;-82
2023/09/05 09:48:22;;;;;;;2.75;1.17;;;29.20;58.80;;;;;;6253658;28;20398;-82
2023/09/05 09:51:26;;;;;;;2.05;1.17;;;29.70;58.70;;;;;;6253166;28;20053;-82
2023/09/05 09:54:31;;;;;;;2.63;1.55;;;30.00;57.60;;;;;;6250788;28;20050;-82
2023/09/05 09:57:38;;;;;;;2.78;1.45;;;29.90;57.30;;;;;;6251012;28;20092;-81
2023/09/05 10:00:45;;;;;;;3.42;1.20;;;29.70;57.00;;;;;;6253223;28;20045;-82
2023/09/05 10:03:50;;;;;;;2.22;1.67;;;29.60;57.00;;;;;;6252064;28;20532;-82
2023/09/05 10:06:54;;;;;;;1.85;1.55;;;29.50;57.10;;;;;;6253799;28;20064;-80
2023/09/05 10:09:57;;;;;;;2.17;1.27;;;29.60;56.80;;;;;;6251341;28;20663;-79
2023/09/05 10:12:59;;;;;;;4.90;1.65;;;29.70;57.10;;;;;;6253166;28;20049;-80
2023/09/05 10:16:02;;;;;;;2.05;1.20;;;29.90;56.30;;;;;;6253300;28;20041;-78
2023/09/05 10:19:06;;;;;;;1.67;1.23;;;30.00;55.90;;;;;;6251670;28;20052;-80
2023/09/05 10:22:11;;;;;;;1.63;1.20;;;30.10;55.40;;;;;;6252217;28;20049;-78
2023/09/05 10:25:15;;;;;;;2.25;1.60;;;30.30;55.60;;;;;;6252807;28;20072;-79
2023/09/05 10:28:17;;;;;;;1.00;0.90;;;30.30;55.80;;;;;;6252083;28;20053;-80
2023/09/05 10:31:18;;;;;;;1.92;1.60;;;30.50;54.90;;;;;;6253420;28;20053;-78
2023/09/05 10:34:31;;;;;;;1.45;1.25;;;30.40;54.70;;;;;;6253374;28;20045;-80
2023/09/05 10:37:50;;;;;;;2.53;1.35;;;30.50;54.10;;;;;;6253508;28;20049;-79
2023/09/05 10:40:52;;;;;;;1.67;0.98;;;30.50;54.20;;;;;;6252246;28;20041;-80
2023/09/05 10:43:56;;;;;;;4.97;1.92;;;30.60;54.50;;;;;;6252408;28;20056;-80
2023/09/05 10:47:25;;;;;;;3.45;1.70;;;30.70;53.80;;;;;;6252398;28;20053;-78
2023/09/05 10:50:28;;;;;;;1.98;1.55;;;30.90;54.10;;;;;;6252479;28;20041;-79
2023/09/05 10:53:29;;;;;;;1.92;1.58;;;31.00;54.00;;;;;;6258323;28;20052;-80
2023/09/05 10:56:40;;;;;;;2.88;1.45;;;31.10;54.20;;;;;;6263164;28;20041;-78
2023/09/05 10:59:44;;;;;;;3.47;1.30;;;31.20;53.60;;;;;;6261885;28;20053;-80
2023/09/05 11:02:47;;;;;;;3.42;1.40;;;31.10;53.30;;;;;;6264465;28;20115;-79
2023/09/05 11:05:51;;;;;;;2.47;1.17;;;31.20;53.50;;;;;;6264019;28;20046;-79
2023/09/05 11:08:57;;;;;;;1.45;1.13;;;31.40;53.30;;;;;;6263915;28;20049;-80
2023/09/05 11:12:05;;;;;;;18.23;2.17;;;31.50;52.90;;;;;;6264941;28;20385;-78
2023/09/05 11:15:08;;;;;;;1.35;1.25;;;31.70;52.70;;;;;;6264690;28;20472;-79
2023/09/05 11:18:11;;;;;;;2.88;1.30;;;32.00;52.60;;;;;;6264651;28;20119;-79
2023/09/05 11:21:22;;;;;;;2.72;1.02;;;32.00;52.50;;;;;;6264205;28;20049;-78
2023/09/05 11:24:30;;;;;;;3.28;1.58;;;32.20;52.40;;;;;;6263856;28;20049;-79
2023/09/05 11:27:32;;;;;;;4.93;3.17;;;32.30;52.40;;;;;;6264791;28;20079;-78
2023/09/05 11:30:36;;;;;;;2.05;1.42;;;32.70;52.10;;;;;;6262526;28;20045;-79
2023/09/05 11:33:39;;;;;;;2.70;1.27;;;32.80;51.60;;;;;;6261451;28;20049;-79
2023/09/05 11:36:42;;;;;;;1.45;1.15;;;32.70;50.90;;;;;;6267387;28;20045;-79
2023/09/05 11:39:45;;;;;;;1.92;1.33;;;32.50;51.00;;;;;;6265186;28;20050;-79
2023/09/05 11:42:47;;;;;;;2.55;1.13;;;32.50;51.00;;;;;;6266653;28;20060;-80
2023/09/05 11:45:53;;;;;;;1.83;1.17;;;32.50;51.10;;;;;;6267083;28;20049;-78
2023/09/05 11:48:58;;;;;;;1.60;1.40;;;32.50;50.60;;;;;;6265369;28;20045;-79
2023/09/05 11:52:03;;;;;;;1.95;1.15;;;32.20;50.80;;;;;;6266801;28;20050;-78
2023/09/05 11:55:06;;;;;;;1.95;1.40;;;32.20;50.80;;;;;;6267575;28;20475;-79
2023/09/05 11:58:09;;;;;;;1.50;1.05;;;32.20;50.80;;;;;;6267711;28;20160;-79
2023/09/05 12:01:11;;;;;;;1.45;1.20;;;32.30;50.50;;;;;;6269133;28;20076;-79
2023/09/05 12:04:12;;;;;;;2.35;1.17;;;32.30;50.70;;;;;;6262979;28;20052;-78
2023/09/05 12:07:16;;;;;;;1.30;1.17;;;32.40;50.80;;;;;;6263673;28;20059;-78
2023/09/05 12:10:18;;;;;;;5.32;1.38;;;32.60;50.70;;;;;;6261598;28;20591;-79
2023/09/05 12:13:19;;;;;;;1.42;1.02;;;32.60;51.00;;;;;;6262767;28;20055;-78
2023/09/05 12:16:21;;;;;;;1.73;1.00;;;32.80;50.30;;;;;;6262080;28;20049;-78
2023/09/05 12:19:28;;;;;;;1.10;1.00;;;32.90;50.20;;;;;;6258915;28;20053;-78
2023/09/05 12:22:32;;;;;;;3.25;1.15;;;33.10;49.60;;;;;;6261356;28;20038;-79
2023/09/05 12:25:34;;;;;;;2.90;1.27;;;33.20;49.00;;;;;;6250954;28;20056;-79
2023/09/05 12:28:38;;;;;;;2.13;1.20;;;33.20;48.90;;;;;;6250284;28;20037;-79
2023/09/05 12:31:39;;;;;;;1.45;1.15;;;33.30;49.00;;;;;;6251250;28;20493;-78
2023/09/05 12:34:43;;;;;;;2.17;1.45;;;33.50;48.80;;;;;;6252328;28;20054;-80
2023/09/05 12:37:46;;;;;;;2.67;1.05;;;33.50;49.20;;;;;;6250172;28;20623;-77
2023/09/05 12:40:48;;;;;;;0.80;0.80;;;33.50;48.20;;;;;;6249991;28;20049;-79
2023/09/05 12:43:49;;;;;;;1.30;1.20;;;33.50;48.40;;;;;;6250831;28;20048;-78
2023/09/05 12:46:51;;;;;;;1.23;1.05;;;33.60;48.10;;;;;;6251926;28;20049;-79
2023/09/05 12:49:53;;;;;;;1.30;1.10;;;33.50;47.60;;;;;;6249885;28;20508;-78
2023/09/05 12:52:56;;;;;;;1.02;0.93;;;33.30;48.00;;;;;;6249566;28;20073;-78
2023/09/05 12:55:58;;;;;;;2.25;1.40;;;33.40;47.80;;;;;;6260365;28;20048;-79
2023/09/05 12:59:00;;;;;;;1.55;1.10;;;33.30;47.40;;;;;;6262176;28;20049;-79
2023/09/05 13:02:01;;;;;;;4.55;1.08;;;33.40;47.40;;;;;;6262342;28;20052;-79
2023/09/05 13:05:03;;;;;;;1.42;0.98;;;33.50;47.00;;;;;;6262055;28;20049;-79
2023/09/05 13:08:09;;;;;;;1.75;1.13;;;33.40;47.00;;;;;;6256299;28;20053;-80
2023/09/05 13:11:11;;;;;;;1.92;0.90;;;33.40;47.10;;;;;;6249164;28;20138;-80
2023/09/05 13:14:13;;;;;;;3.10;0.98;;;33.60;47.00;;;;;;6249078;28;20046;-78
2023/09/05 13:17:16;;;;;;;1.40;0.80;;;33.50;47.10;;;;;;6249455;28;20053;-79
2023/09/05 13:20:18;;;;;;;1.90;1.42;;;33.70;46.80;;;;;;6249171;28;20041;-79
2023/09/05 13:23:21;;;;;;;2.47;1.75;;;33.70;46.50;;;;;;6250298;28;20052;-79
2023/09/05 13:26:22;;;;;;;1.15;1.00;;;33.60;46.40;;;;;;6249501;28;20053;-79
2023/09/05 13:29:24;;;;;;;1.30;0.88;;;33.50;46.10;;;;;;6248405;28;20049;-78
2023/09/05 13:32:26;;;;;;;1.00;0.90;;;33.60;46.20;;;;;;6248940;28;20369;-78
2023/09/05 13:35:28;;;;;;;1.65;0.95;;;33.60;45.90;;;;;;6249306;28;20072;-79
2023/09/05 13:38:31;;;;;;;1.52;0.90;;;33.70;45.80;;;;;;6248445;28;20135;-78
2023/09/05 13:41:33;;;;;;;1.35;0.88;;;33.70;45.80;;;;;;6249417;28;20494;-80
2023/09/05 13:44:34;;;;;;;3.38;1.20;;;33.80;45.90;;;;;;6247378;28;20500;-77
2023/09/05 13:47:37;;;;;;;3.90;0.88;;;33.80;45.60;;;;;;6247969;28;20045;-79
2023/09/05 13:50:38;;;;;;;1.10;0.88;;;33.80;45.70;;;;;;6247970;28;20050;-77
2023/09/05 13:53:41;;;;;;;4.47;0.93;;;34.00;45.70;;;;;;6248306;28;20420;-78
2023/09/05 13:56:44;;;;;;;1.65;0.50;;;34.10;45.20;;;;;;6249191;28;20048;-78
2023/09/05 13:59:46;;;;;;;0.95;0.70;;;34.40;45.00;;;;;;6251129;28;20053;-79
2023/09/05 14:02:48;;;;;;;5.03;0.70;;;34.20;44.40;;;;;;6251882;28;20049;-77
2023/09/05 14:05:50;;;;;;;0.80;0.68;;;34.10;44.50;;;;;;6252523;28;20509;-78
2023/09/05 14:08:53;;;;;;;2.33;0.70;;;34.10;44.50;;;;;;6246178;28;20045;-77
2023/09/05 14:11:54;;;;;;;0.75;0.70;;;34.00;44.60;;;;;;6252605;28;20057;-80
2023/09/05 14:14:56;;;;;;;5.90;0.90;;;34.10;44.30;;;;;;6253840;28;20416;-77
2023/09/05 14:17:58;;;;;;;1.42;0.65;;;34.10;44.30;;;;;;6252717;28;20164;-78
2023/09/05 14:20:59;;;;;;;2.10;0.50;;;34.20;44.30;;;;;;6254147;28;20049;-78
2023/09/05 14:24:03;;;;;;;2.20;0.90;;;34.30;44.40;;;;;;6252771;28;20045;-78
2023/09/05 14:27:05;;;;;;;3.03;0.80;;;34.60;44.40;;;;;;6254750;28;20057;-78
2023/09/05 14:30:08;;;;;;;1.88;0.95;;;34.50;43.70;;;;;;6256300;28;20045;-79
2023/09/05 14:33:10;;;;;;;1.45;1.08;;;34.40;43.60;;;;;;6251945;28;20433;-78
2023/09/05 14:36:11;;;;;;;0.60;0.52;;;34.40;43.80;;;;;;6252533;28;20445;-79
2023/09/05 14:39:16;;;;;;;1.27;0.85;;;34.50;44.10;;;;;;6250661;28;20049;-79
2023/09/05 14:42:18;;;;;;;0.98;0.85;;;34.50;44.10;;;;;;6255102;28;20477;-78
2023/09/05 14:45:20;;;;;;;2.45;0.80;;;34.50;44.70;;;;;;6261821;28;20046;-80
2023/09/05 14:48:21;;;;;;;1.02;0.93;;;34.70;44.70;;;;;;6251425;28;20042;-79
2023/09/05 14:51:23;;;;;;;0.85;0.82;;;34.60;44.20;;;;;;6251488;28;20076;-79
2023/09/05 14:54:27;;;;;;;1.73;1.08;;;34.60;44.30;;;;;;6251222;28;20514;-79
2023/09/05 14:57:29;;;;;;;4.78;0.85;;;34.60;44.30;;;;;;6250924;28;20056;-79
2023/09/05 15:00:30;;;;;;;1.38;0.60;;;34.60;44.20;;;;;;6250984;28;20052;-79
2023/09/05 15:03:32;;;;;;;2.10;0.80;;;34.40;44.50;;;;;;6251942;28;20057;-79
2023/09/05 15:06:34;;;;;;;1.15;0.93;;;34.30;44.40;;;;;;6252669;28;20533;-79
2023/09/05 15:09:37;;;;;;;3.03;0.95;;;34.20;44.30;;;;;;6252316;28;20045;-78
2023/09/05 15:12:38;;;;;;;2.10;0.93;;;33.60;44.40;;;;;;6251993;28;20041;-79
2023/09/05 15:15:40;;;;;;;0.73;0.60;;;33.10;45.20;;;;;;6246685;28;20041;-78
2023/09/05 15:18:42;;;;;;;0.85;0.65;;;32.80;45.80;;;;;;6251449;28;20517;-78
2023/09/05 15:21:44;;;;;;;1.27;0.80;;;32.60;46.00;;;;;;6251062;28;20049;-78
2023/09/05 15:24:47;;;;;;;2.42;0.73;;;32.20;46.40;;;;;;6252781;28;20508;-77
2023/09/05 15:27:48;;;;;;;2.38;1.40;;;31.90;46.70;;;;;;6252159;28;20049;-78
2023/09/05 15:30:50;;;;;;;2.17;1.10;;;31.60;46.80;;;;;;6251422;28;20045;-79
2023/09/05 15:33:52;;;;;;;1.00;0.63;;;31.40;47.30;;;;;;6251194;28;20061;-79
2023/09/05 15:36:54;;;;;;;0.80;0.57;;;31.10;47.50;;;;;;6252033;28;20495;-77
2023/09/05 15:39:58;;;;;;;0.85;0.82;;;31.00;48.10;;;;;;6249390;28;20054;-78
2023/09/05 15:42:59;;;;;;;2.92;1.17;;;30.80;48.60;;;;;;6247402;28;20413;-78
2023/09/05 15:46:01;;;;;;;1.83;0.93;;;30.60;49.00;;;;;;6251205;28;20056;-78
2023/09/05 15:49:03;;;;;;;0.70;0.70;;;30.50;49.40;;;;;;6251487;28;20045;-79
2023/09/05 15:52:05;;;;;;;1.27;0.70;;;30.40;49.80;;;;;;6251644;28;20524;-79